createdAt,value
2022-11-04T00:01:07.036Z,95308.44
2022-11-04T00:04:04.151Z,95303.88
2022-11-04T00:07:01.074Z,95302.41
2022-11-04T00:09:57.977Z,95303.03
2022-11-04T00:12:54.782Z,95311.53
2022-11-04T00:16:09.987Z,95313.56
2022-11-04T00:19:06.838Z,95307.81
2022-11-04T00:22:22.249Z,95312.97
2022-11-04T00:25:37.613Z,95317.38
2022-11-04T00:28:43.535Z,95308.78
2022-11-04T00:31:58.984Z,95315.31
2022-11-04T00:34:56.111Z,95319.28
2022-11-04T00:37:52.937Z,95317.63
2022-11-04T00:40:49.884Z,95327.00
2022-11-04T00:43:46.713Z,95327.78
2022-11-04T00:46:43.550Z,95340.19
2022-11-04T00:49:40.402Z,95353.19
2022-11-04T00:52:37.270Z,95355.72
2022-11-04T00:55:34.278Z,95366.13
2022-11-04T00:58:31.490Z,95360.78
2022-11-04T01:01:28.505Z,95358.44
2022-11-04T01:04:25.432Z,95363.44
2022-11-04T01:07:22.254Z,95352.66
2022-11-04T01:10:19.117Z,95356.91
2022-11-04T01:13:15.954Z,95358.94
2022-11-04T01:16:13.356Z,95349.72
2022-11-04T01:19:11.750Z,95349.72
2022-11-04T01:22:08.679Z,95343.28
2022-11-04T01:25:06.996Z,95337.19
2022-11-04T01:28:03.863Z,95342.22
2022-11-04T01:31:06.307Z,95346.13
2022-11-04T01:34:03.337Z,95347.50
2022-11-04T01:37:00.164Z,95350.34
2022-11-04T01:39:57.051Z,95330.41
2022-11-04T01:42:53.933Z,95306.41
2022-11-04T01:45:54.208Z,95321.94
2022-11-04T01:48:52.968Z,95348.78
2022-11-04T01:51:53.369Z,95348.56
2022-11-04T01:54:53.924Z,95342.28
2022-11-04T01:57:54.840Z,95342.00
2022-11-04T02:00:52.025Z,95350.13
2022-11-04T02:04:21.391Z,95350.63
2022-11-04T02:07:18.299Z,95357.53
2022-11-04T02:10:15.660Z,95359.09
2022-11-04T02:13:12.795Z,95352.50
2022-11-04T02:16:27.181Z,95363.31
2022-11-04T02:19:58.362Z,95369.13
2022-11-04T02:23:26.449Z,95362.22
2022-11-04T02:27:01.717Z,95362.84
2022-11-04T02:30:12.207Z,95352.66
2022-11-04T02:33:28.565Z,95357.19
2022-11-04T02:36:57.414Z,95363.16
2022-11-04T02:40:25.409Z,95365.00
2022-11-04T02:43:45.171Z,95365.50
2022-11-04T02:47:00.193Z,95366.00
2022-11-04T02:50:25.800Z,95367.41
2022-11-04T02:53:47.693Z,95377.44
2022-11-04T02:56:50.028Z,95382.13
2022-11-04T03:00:01.258Z,95373.34
2022-11-04T03:03:05.745Z,95373.81
2022-11-04T03:06:04.773Z,95374.44
2022-11-04T03:09:03.929Z,95371.94
2022-11-04T03:12:14.895Z,95377.88
2022-11-04T03:15:22.819Z,95382.78
2022-11-04T03:18:32.212Z,95380.25
2022-11-04T03:21:34.930Z,95383.69
2022-11-04T03:24:32.560Z,95394.88
2022-11-04T03:27:53.284Z,95391.25
2022-11-04T03:30:55.142Z,95389.38
2022-11-04T03:33:55.955Z,95404.28
2022-11-04T03:36:52.737Z,95399.13
2022-11-04T03:39:49.560Z,95393.47
2022-11-04T03:43:00.148Z,95384.03
2022-11-04T03:45:57.003Z,95374.63
2022-11-04T03:48:55.061Z,95363.44
2022-11-04T03:51:52.977Z,95374.13
2022-11-04T03:54:49.808Z,95382.13
2022-11-04T03:58:29.667Z,95396.59
2022-11-04T04:02:04.180Z,95400.81
2022-11-04T04:05:14.534Z,95403.19
2022-11-04T04:08:26.409Z,95409.59
2022-11-04T04:11:55.076Z,95414.81
2022-11-04T04:15:25.099Z,95415.91
2022-11-04T04:18:36.742Z,95414.50
2022-11-04T04:21:58.371Z,95415.72
2022-11-04T04:25:18.824Z,95411.03
2022-11-04T04:28:18.392Z,95410.59
2022-11-04T04:31:39.913Z,95411.53
2022-11-04T04:34:38.304Z,95401.31
2022-11-04T04:37:35.328Z,95414.81
2022-11-04T04:40:52.540Z,95428.63
2022-11-04T04:44:08.359Z,95435.84
2022-11-04T04:47:07.284Z,95440.41
2022-11-04T04:50:04.807Z,95440.06
2022-11-04T04:53:04.040Z,95438.34
2022-11-04T04:56:00.845Z,95445.75
2022-11-04T04:58:57.640Z,95444.19
2022-11-04T05:01:54.611Z,95444.03
2022-11-04T05:04:51.459Z,95425.50
2022-11-04T05:07:48.576Z,95428.47
2022-11-04T05:10:45.444Z,95424.41
2022-11-04T05:13:42.236Z,95443.56
2022-11-04T05:16:40.881Z,95475.44
2022-11-04T05:19:37.920Z,95469.00
2022-11-04T05:22:34.863Z,95466.06
2022-11-04T05:25:31.770Z,95471.56
2022-11-04T05:28:28.789Z,95480.19
2022-11-04T05:31:25.670Z,95476.56
2022-11-04T05:34:22.530Z,95478.44
2022-11-04T05:37:19.335Z,95474.69
2022-11-04T05:40:16.666Z,95469.19
2022-11-04T05:43:13.469Z,95480.19
2022-11-04T05:46:10.292Z,95477.97
2022-11-04T05:49:07.096Z,95477.81
2022-11-04T05:52:05.100Z,95482.03
2022-11-04T05:55:02.031Z,95482.97
2022-11-04T05:57:59.285Z,95479.06
2022-11-04T06:01:34.520Z,95484.06
2022-11-04T06:04:31.517Z,95489.56
2022-11-04T06:07:28.333Z,95479.06
2022-11-04T06:10:25.849Z,95488.97
2022-11-04T06:13:22.654Z,95486.63
2022-11-04T06:16:19.477Z,95488.78
2022-11-04T06:19:16.510Z,95487.56
2022-11-04T06:22:16.642Z,95476.88
2022-11-04T06:25:13.551Z,95478.63
2022-11-04T06:28:10.735Z,95471.22
2022-11-04T06:31:10.198Z,95476.88
2022-11-04T06:34:07.097Z,95485.34
2022-11-04T06:37:05.056Z,95507.63
2022-11-04T06:40:02.020Z,95513.44
2022-11-04T06:42:59.200Z,95508.72
2022-11-04T06:45:57.740Z,95522.50
2022-11-04T06:48:57.099Z,95526.88
2022-11-04T06:51:53.927Z,95525.34
2022-11-04T06:54:50.855Z,95523.47
2022-11-04T06:57:47.644Z,95531.94
2022-11-04T07:00:45.625Z,95524.56
2022-11-04T07:03:42.638Z,95539.94
2022-11-04T07:06:44.288Z,95544.63
2022-11-04T07:09:41.723Z,95535.84
2022-11-04T07:12:38.528Z,95556.72
2022-11-04T07:15:35.836Z,95574.09
2022-11-04T07:18:33.067Z,95590.38
2022-11-04T07:21:29.939Z,95596.81
2022-11-04T07:24:26.744Z,95594.75
2022-11-04T07:27:23.556Z,95587.09
2022-11-04T07:30:20.688Z,95592.13
2022-11-04T07:33:18.264Z,95606.69
2022-11-04T07:36:17.013Z,95622.03
2022-11-04T07:39:13.851Z,95615.44
2022-11-04T07:42:10.721Z,95610.31
2022-11-04T07:45:08.060Z,95624.44
2022-11-04T07:48:04.914Z,95623.16
2022-11-04T07:51:03.031Z,95624.59
2022-11-04T07:54:00.586Z,95619.72
2022-11-04T07:56:58.257Z,95623.94
2022-11-04T07:59:55.174Z,95625.38
2022-11-04T08:02:52.101Z,95611.97
2022-11-04T08:05:59.534Z,95619.97
2022-11-04T08:08:59.070Z,95620.06
2022-11-04T08:11:55.920Z,95620.09
2022-11-04T08:14:52.764Z,95595.31
2022-11-04T08:17:49.589Z,95585.41
2022-11-04T08:20:53.725Z,95577.56
2022-11-04T08:23:51.579Z,95558.47
2022-11-04T08:26:48.445Z,95556.28
2022-11-04T08:29:45.526Z,95539.03
2022-11-04T08:32:42.390Z,95528.66
2022-11-04T08:35:41.812Z,95524.25
2022-11-04T08:38:38.850Z,95523.47
2022-11-04T08:41:37.696Z,95532.44
2022-11-04T08:44:34.623Z,95513.91
2022-11-04T08:47:31.436Z,95506.22
2022-11-04T08:50:31.035Z,95518.28
2022-11-04T08:53:28.168Z,95533.22
2022-11-04T08:56:37.740Z,95528.66
2022-11-04T08:59:34.693Z,95540.44
2022-11-04T09:02:31.477Z,95558.16
2022-11-04T09:05:28.825Z,95582.16
2022-11-04T09:08:25.636Z,95597.72
2022-11-04T09:11:22.634Z,95605.88
2022-11-04T09:14:20.686Z,95611.72
2022-11-04T09:17:17.523Z,95620.47
2022-11-04T09:20:14.377Z,95621.59
2022-11-04T09:23:11.871Z,95621.41
2022-11-04T09:26:15.998Z,95627.41
2022-11-04T09:29:13.197Z,95624.09
2022-11-04T09:32:10.081Z,95626.13
2022-11-04T09:35:07.460Z,95616.72
2022-11-04T09:38:04.542Z,95619.19
2022-11-04T09:41:01.836Z,95616.72
2022-11-04T09:44:14.793Z,95610.28
2022-11-04T09:47:15.735Z,95615.31
2022-11-04T09:50:31.466Z,95606.97
2022-11-04T09:53:56.391Z,95605.56
2022-11-04T09:56:57.361Z,95608.22
2022-11-04T09:59:54.629Z,95611.53
2022-11-04T10:03:24.846Z,95616.09
2022-11-04T10:06:50.784Z,95602.91
2022-11-04T10:10:28.214Z,95614.66
2022-11-04T10:13:43.997Z,95630.66
2022-11-04T10:16:51.187Z,95630.22
2022-11-04T10:20:03.718Z,95614.66
2022-11-04T10:23:12.670Z,95602.28
2022-11-04T10:27:00.604Z,95586.88
2022-11-04T10:30:24.128Z,95567.09
2022-11-04T10:33:35.626Z,95558.50
2022-11-04T10:36:33.729Z,95570.09
2022-11-04T10:39:35.984Z,95567.63
2022-11-04T10:42:33.229Z,95577.94
2022-11-04T10:46:00.612Z,95584.84
2022-11-04T10:49:30.114Z,95587.22
2022-11-04T10:52:26.904Z,95591.16
2022-11-04T10:55:41.176Z,95592.72
2022-11-04T10:58:46.922Z,95590.19
2022-11-04T11:01:53.696Z,95594.28
2022-11-04T11:04:51.077Z,95582.84
2022-11-04T11:07:52.231Z,95579.84
2022-11-04T11:10:52.867Z,95584.09
2022-11-04T11:13:49.745Z,95577.63
2022-11-04T11:16:48.254Z,95583.13
2022-11-04T11:19:59.210Z,95576.34
2022-11-04T11:23:01.908Z,95573.53
2022-11-04T11:26:04.119Z,95570.72
2022-11-04T11:29:02.444Z,95573.38
2022-11-04T11:32:00.872Z,95569.16
2022-11-04T11:35:02.779Z,95576.31
2022-11-04T11:38:04.145Z,95577.69
2022-11-04T11:41:28.205Z,95585.13
2022-11-04T11:44:41.114Z,95586.22
2022-11-04T11:47:42.155Z,95576.16
2022-11-04T11:50:47.815Z,95582.59
2022-11-04T11:54:18.935Z,95572.56
2022-11-04T12:01:42.468Z,95574.44
2022-11-04T12:12:37.752Z,95572.63
2022-11-04T12:15:49.395Z,95577.59
2022-11-04T12:19:25.812Z,95565.75
2022-11-04T12:22:47.143Z,95565.88
2022-11-04T12:26:29.597Z,95559.75
2022-11-04T12:29:40.915Z,95555.09
2022-11-04T12:32:58.623Z,95562.84
2022-11-04T12:36:16.858Z,95560.03
2022-11-04T12:39:37.572Z,95562.38
2022-11-04T12:43:15.910Z,95573.09
2022-11-04T12:46:26.305Z,95580.28
2022-11-04T12:50:03.341Z,95598.81
2022-11-04T12:53:24.970Z,95600.56
2022-11-04T12:56:37.492Z,95596.72
2022-11-04T12:59:46.960Z,95594.16
2022-11-04T13:03:30.179Z,95588.72
2022-11-04T13:07:17.021Z,95583.09
2022-11-04T13:10:56.319Z,95590.38
2022-11-04T13:14:29.255Z,95587.88
2022-11-04T13:17:40.190Z,95603.53
2022-11-04T13:20:42.878Z,95602.38
2022-11-04T13:24:04.294Z,95615.97
2022-11-04T13:27:18.959Z,95610.31
2022-11-04T13:30:30.285Z,95607.91
2022-11-04T13:33:35.732Z,95616.28
2022-11-04T13:37:17.957Z,95610.00
2022-11-04T13:40:30.646Z,95617.31
2022-11-04T13:43:39.631Z,95618.78
2022-11-04T13:46:39.487Z,95620.53
2022-11-04T13:49:37.520Z,95628.66
2022-11-04T13:52:52.344Z,95627.84
2022-11-04T13:55:50.947Z,95630.09
2022-11-04T13:58:58.246Z,95636.00
2022-11-04T14:02:14.142Z,95636.53
2022-11-04T14:05:32.454Z,95650.31
2022-11-04T14:08:30.045Z,95639.78
2022-11-04T14:11:26.860Z,95650.19
2022-11-04T14:14:23.689Z,95645.69
2022-11-04T14:17:35.728Z,95646.97
2022-11-04T14:20:34.670Z,95648.25
2022-11-04T14:23:32.638Z,95639.13
2022-11-04T14:26:46.962Z,95651.38
2022-11-04T14:29:52.637Z,95651.53
2022-11-04T14:33:17.110Z,95667.66
2022-11-04T14:36:20.654Z,95664.19
2022-11-04T14:39:43.145Z,95657.13
2022-11-04T14:42:55.471Z,95657.13
2022-11-04T14:45:55.262Z,95665.56
2022-11-04T14:48:55.819Z,95664.03
2022-11-04T14:51:55.040Z,95662.59
2022-11-04T14:55:08.407Z,95669.34
2022-11-04T14:58:24.959Z,95685.94
2022-11-04T15:01:23.127Z,95683.75
2022-11-04T15:04:30.988Z,95684.53
2022-11-04T15:07:41.219Z,95685.47
2022-11-04T15:10:38.016Z,95688.88
2022-11-04T15:13:50.249Z,95703.19
2022-11-04T15:16:54.185Z,95708.50
2022-11-04T15:19:56.013Z,95697.56
2022-11-04T15:22:53.437Z,95700.41
2022-11-04T15:25:50.522Z,95710.84
2022-11-04T15:28:49.581Z,95703.13
2022-11-04T15:32:05.147Z,95706.09
2022-11-04T15:35:02.674Z,95704.53
2022-11-04T15:38:01.734Z,95703.38
2022-11-04T15:41:19.510Z,95707.41
2022-11-04T15:44:23.452Z,95724.09
2022-11-04T15:47:20.267Z,95718.88
2022-11-04T15:50:25.626Z,95727.06
2022-11-04T15:53:22.609Z,95721.69
2022-11-04T15:56:27.079Z,95722.94
2022-11-04T15:59:31.131Z,95729.50
2022-11-04T16:02:32.791Z,95742.25
2022-11-04T16:05:37.684Z,95740.03
2022-11-04T16:08:35.007Z,95752.28
2022-11-04T16:11:32.168Z,95744.72
2022-11-04T16:14:30.425Z,95757.03
2022-11-04T16:17:29.550Z,95759.84
2022-11-04T16:20:26.530Z,95763.84
2022-11-04T16:23:28.161Z,95761.28
2022-11-04T16:26:41.677Z,95757.16
2022-11-04T16:29:41.564Z,95765.47
2022-11-04T16:32:44.673Z,95762.31
2022-11-04T16:35:43.073Z,95762.53
2022-11-04T16:38:39.865Z,95779.00
2022-11-04T16:41:40.371Z,95778.09
2022-11-04T16:44:37.186Z,95775.06
2022-11-04T16:47:39.883Z,95776.19
2022-11-04T16:50:36.737Z,95788.72
2022-11-04T16:53:33.528Z,95783.03
2022-11-04T16:56:30.409Z,95785.28
2022-11-04T16:59:27.237Z,95785.81
2022-11-04T17:02:31.030Z,95794.06
2022-11-04T17:05:28.126Z,95789.81
2022-11-04T17:08:26.384Z,95794.06
2022-11-04T17:11:23.194Z,95796.91
2022-11-04T17:14:20.033Z,95799.06
2022-11-04T17:17:17.144Z,95794.25
2022-11-04T17:20:17.796Z,95804.09
2022-11-04T17:23:15.740Z,95804.41
2022-11-04T17:26:13.434Z,95799.88
2022-11-04T17:29:15.899Z,95802.53
2022-11-04T17:32:14.032Z,95802.44
2022-11-04T17:35:11.708Z,95801.81
2022-11-04T17:38:11.971Z,95805.19
2022-11-04T17:41:27.144Z,95794.38
2022-11-04T17:44:23.950Z,95800.34
2022-11-04T17:47:21.486Z,95800.66
2022-11-04T17:50:18.511Z,95802.22
2022-11-04T17:53:15.512Z,95817.69
2022-11-04T17:56:21.343Z,95805.56
2022-11-04T17:59:18.272Z,95811.38
2022-11-04T18:02:15.294Z,95814.88
2022-11-04T18:05:12.226Z,95818.22
2022-11-04T18:08:09.041Z,95820.97
2022-11-04T18:11:10.077Z,95834.47
2022-11-04T18:14:09.965Z,95836.28
2022-11-04T18:17:09.260Z,95832.97
2022-11-04T18:20:13.593Z,95831.56
2022-11-04T18:23:12.946Z,95842.00
2022-11-04T18:26:11.510Z,95852.69
2022-11-04T18:29:09.382Z,95843.56
2022-11-04T18:32:06.536Z,95848.41
2022-11-04T18:35:03.480Z,95859.19
2022-11-04T18:38:00.280Z,95864.22
2022-11-04T18:40:57.471Z,95863.91
2022-11-04T18:43:54.278Z,95861.59
2022-11-04T18:46:51.111Z,95867.53
2022-11-04T18:49:48.068Z,95867.69
2022-11-04T18:52:45.066Z,95875.00
2022-11-04T18:55:44.437Z,95875.25
2022-11-04T18:58:42.322Z,95867.16
2022-11-04T19:01:39.306Z,95879.84
2022-11-04T19:04:36.261Z,95882.78
2022-11-04T19:07:33.454Z,95896.28
2022-11-04T19:10:30.263Z,95893.28
2022-11-04T19:13:27.336Z,95902.25
2022-11-04T19:16:25.633Z,95910.59
2022-11-04T19:19:22.438Z,95914.13
2022-11-04T19:22:19.376Z,95908.34
2022-11-04T19:25:16.430Z,95912.38
2022-11-04T19:28:34.573Z,95911.59
2022-11-04T19:31:31.891Z,95919.88
2022-11-04T19:34:31.645Z,95923.50
2022-11-04T19:37:28.915Z,95933.78
2022-11-04T19:40:25.890Z,95940.44
2022-11-04T19:43:23.536Z,95947.41
2022-11-04T19:46:20.699Z,95957.53
2022-11-04T19:49:18.298Z,95967.94
2022-11-04T19:52:15.205Z,95958.53
2022-11-04T19:55:12.212Z,95972.34
2022-11-04T19:58:09.317Z,95970.91
2022-11-04T20:01:07.717Z,95974.94
2022-11-04T20:04:05.125Z,95979.94
2022-11-04T20:07:02.019Z,95977.22
2022-11-04T20:10:01.966Z,95970.41
2022-11-04T20:13:17.453Z,95974.63
2022-11-04T20:16:26.889Z,95977.72
2022-11-04T20:19:23.948Z,95985.19
2022-11-04T20:22:20.838Z,95983.53
2022-11-04T20:25:17.880Z,95992.41
2022-11-04T20:28:17.269Z,95986.13
2022-11-04T20:31:20.989Z,95996.09
2022-11-04T20:34:18.012Z,96002.28
2022-11-04T20:37:15.005Z,95992.06
2022-11-04T20:40:12.812Z,96006.31
2022-11-04T20:43:09.677Z,96006.34
2022-11-04T20:46:11.154Z,96004.91
2022-11-04T20:49:08.471Z,96011.31
2022-11-04T20:52:05.419Z,96006.91
2022-11-04T20:55:02.449Z,96021.38
2022-11-04T20:57:59.282Z,96031.59
2022-11-04T21:01:01.892Z,96034.44
2022-11-04T21:04:11.297Z,96050.63
2022-11-04T21:07:08.299Z,96046.41
2022-11-04T21:10:05.725Z,96048.84
2022-11-04T21:13:03.127Z,96060.34
2022-11-04T21:16:01.786Z,96065.66
2022-11-04T21:18:59.711Z,96059.31
2022-11-04T21:21:56.900Z,96055.56
2022-11-04T21:24:53.765Z,96059.56
2022-11-04T21:27:50.644Z,96053.03
2022-11-04T21:30:50.523Z,96049.59
2022-11-04T21:33:47.385Z,96050.72
2022-11-04T21:36:45.537Z,96056.16
2022-11-04T21:39:42.691Z,96061.94
2022-11-04T21:42:39.548Z,96064.78
2022-11-04T21:45:36.476Z,96071.75
2022-11-04T21:48:35.280Z,96066.63
2022-11-04T21:51:33.523Z,96078.53
2022-11-04T21:54:30.369Z,96069.72
2022-11-04T21:57:27.239Z,96074.88
2022-11-04T22:00:24.259Z,96069.16
2022-11-04T22:03:21.084Z,96070.56
2022-11-04T22:06:18.167Z,96070.31
2022-11-04T22:09:15.248Z,96072.53
2022-11-04T22:12:12.072Z,96075.88
2022-11-04T22:15:09.619Z,96076.41
2022-11-04T22:18:07.054Z,96095.34
2022-11-04T22:21:13.036Z,96083.47
2022-11-04T22:24:16.532Z,96091.94
2022-11-04T22:27:13.410Z,96093.50
2022-11-04T22:30:10.972Z,96092.16
2022-11-04T22:33:08.081Z,96090.44
2022-11-04T22:36:09.483Z,96101.72
2022-11-04T22:39:08.347Z,96098.22
2022-11-04T22:42:07.585Z,96101.81
2022-11-04T22:45:05.100Z,96105.09
2022-11-04T22:48:01.972Z,96098.16
2022-11-04T22:50:59.398Z,96099.66
2022-11-04T22:54:01.404Z,96097.28
2022-11-04T22:56:59.868Z,96094.19
2022-11-04T22:59:56.741Z,96092.78
2022-11-04T23:02:53.834Z,96093.84
2022-11-04T23:05:59.197Z,96095.44
2022-11-04T23:09:00.022Z,96090.84
2022-11-04T23:12:15.946Z,96086.50
2022-11-04T23:15:31.395Z,96093.41
2022-11-04T23:18:43.340Z,96092.94
2022-11-04T23:21:58.707Z,96103.00
2022-11-04T23:25:11.456Z,96104.53
2022-11-04T23:28:26.832Z,96109.28
2022-11-04T23:31:23.645Z,96104.25
2022-11-04T23:34:39.006Z,96106.56
2022-11-04T23:37:35.797Z,96110.38
2022-11-04T23:40:33.194Z,96115.31
2022-11-04T23:43:30.435Z,96118.78
2022-11-04T23:46:45.511Z,96109.91
2022-11-04T23:50:00.648Z,96117.19
2022-11-04T23:53:16.258Z,96114.78
2022-11-04T23:56:31.914Z,96116.75
2022-11-04T23:59:47.133Z,96119.84
